ASA1019 PHTO-PHOG
Flight info
| Callsign | ASA1019 |
|---|---|
| Flight time | 0h 28m |
| Altitude | 12000 |
| Route | ITO V22 OKALA V16 UPP V2 HARPO CAMPS4 |
| Aircraft | A21N/M-SDE2E3FGHIRWXY/LB1 |
Departure
| Time | 2026-04-28 00:54 |
|---|---|
| Airport | Hilo International Airport (PHTO) |
Arrival
| Time | 2026-04-28 01:22 |
|---|---|
| Airport | Kahului International Airport (PHOG) |
| Time | Latitude | Longitude | Altitude | Speed | Heading |
|---|---|---|---|---|---|
| 2026-04-28 00:43 | 19.71545 | -155.04121 | 78 ft | 0 kts | 180° |
| 2026-04-28 00:46 | 19.71546 | -155.04121 | 78 ft | 0 kts | 180° |
| 2026-04-28 00:46 | 19.71555 | -155.04121 | 78 ft | 2 kts | 180° |
| 2026-04-28 00:46 | 19.71570 | -155.04121 | 77 ft | 2 kts | 180° |
| 2026-04-28 00:46 | 19.71585 | -155.04120 | 77 ft | 2 kts | 180° |
| 2026-04-28 00:47 | 19.71592 | -155.04120 | 77 ft | 0 kts | 180° |
| 2026-04-28 00:49 | 19.71591 | -155.04120 | 77 ft | 2 kts | 178° |
| 2026-04-28 00:50 | 19.71580 | -155.04103 | 77 ft | 4 kts | 78° |
| 2026-04-28 00:50 | 19.71630 | -155.04073 | 75 ft | 12 kts | 15° |
| 2026-04-28 00:50 | 19.71728 | -155.04065 | 72 ft | 14 kts | 360° |
| 2026-04-28 00:50 | 19.71838 | -155.04065 | 70 ft | 16 kts | 1° |
| 2026-04-28 00:51 | 19.71954 | -155.04063 | 68 ft | 12 kts | 5° |
| 2026-04-28 00:51 | 19.72008 | -155.03993 | 66 ft | 15 kts | 85° |
| 2026-04-28 00:51 | 19.72010 | -155.03836 | 66 ft | 22 kts | 89° |
| 2026-04-28 00:51 | 19.72009 | -155.03674 | 65 ft | 21 kts | 90° |
| 2026-04-28 00:52 | 19.72009 | -155.03519 | 64 ft | 20 kts | 89° |
| 2026-04-28 00:52 | 19.72011 | -155.03374 | 66 ft | 18 kts | 90° |
| 2026-04-28 00:52 | 19.72009 | -155.03239 | 66 ft | 18 kts | 90° |
| 2026-04-28 00:52 | 19.72009 | -155.03107 | 66 ft | 17 kts | 89° |
| 2026-04-28 00:53 | 19.72017 | -155.02988 | 66 ft | 14 kts | 66° |
| 2026-04-28 00:53 | 19.72091 | -155.02943 | 66 ft | 12 kts | 5° |
| 2026-04-28 00:53 | 19.72135 | -155.02963 | 66 ft | 6 kts | 284° |
| 2026-04-28 00:53 | 19.72137 | -155.03116 | 66 ft | 61 kts | 270° |
| 2026-04-28 00:54 | 19.72137 | -155.03912 | 66 ft | 152 kts | 269° |
| 2026-04-28 00:54 | 19.72109 | -155.05229 | 476 ft | 189 kts | 272° |
| 2026-04-28 00:54 | 19.72179 | -155.06593 | 1468 ft | 189 kts | 288° |
| 2026-04-28 00:54 | 19.72745 | -155.07828 | 2348 ft | 197 kts | 305° |
| 2026-04-28 00:55 | 19.73563 | -155.09090 | 2967 ft | 223 kts | 310° |
| 2026-04-28 00:55 | 19.74788 | -155.10260 | 3436 ft | 256 kts | 331° |
| 2026-04-28 00:55 | 19.76416 | -155.11180 | 4349 ft | 271 kts | 336° |
| 2026-04-28 00:55 | 19.78112 | -155.12071 | 5481 ft | 278 kts | 335° |
| 2026-04-28 00:56 | 19.79837 | -155.13013 | 6671 ft | 282 kts | 333° |
| 2026-04-28 00:56 | 19.81546 | -155.13989 | 7795 ft | 286 kts | 332° |
| 2026-04-28 00:56 | 19.83295 | -155.15015 | 8876 ft | 289 kts | 330° |
| 2026-04-28 00:56 | 19.85052 | -155.16063 | 9715 ft | 291 kts | 330° |
| 2026-04-28 00:57 | 19.86775 | -155.17194 | 10400 ft | 297 kts | 320° |
| 2026-04-28 00:57 | 19.88093 | -155.18953 | 10831 ft | 312 kts | 298° |
| 2026-04-28 00:57 | 19.89066 | -155.21062 | 11199 ft | 328 kts | 295° |
| 2026-04-28 00:57 | 19.90032 | -155.23280 | 11676 ft | 335 kts | 295° |
| 2026-04-28 00:58 | 19.91051 | -155.25537 | 11964 ft | 335 kts | 296° |
| 2026-04-28 00:58 | 19.92088 | -155.27747 | 11997 ft | 336 kts | 297° |
| 2026-04-28 00:58 | 19.93148 | -155.29947 | 12001 ft | 335 kts | 297° |
| 2026-04-28 00:58 | 19.94223 | -155.32146 | 12005 ft | 335 kts | 298° |
| 2026-04-28 00:59 | 19.95312 | -155.34351 | 12007 ft | 336 kts | 298° |
| 2026-04-28 00:59 | 19.96403 | -155.36552 | 12004 ft | 337 kts | 298° |
| 2026-04-28 00:59 | 19.97500 | -155.38760 | 12006 ft | 337 kts | 298° |
| 2026-04-28 00:59 | 19.98599 | -155.40971 | 12006 ft | 337 kts | 298° |
| 2026-04-28 01:00 | 19.99700 | -155.43184 | 12015 ft | 344 kts | 298° |
| 2026-04-28 01:00 | 20.00858 | -155.45509 | 12025 ft | 368 kts | 298° |
| 2026-04-28 01:00 | 20.02079 | -155.47961 | 12022 ft | 379 kts | 298° |
| 2026-04-28 01:00 | 20.03309 | -155.50432 | 12022 ft | 380 kts | 298° |
| 2026-04-28 01:01 | 20.04550 | -155.52927 | 12007 ft | 381 kts | 298° |
| 2026-04-28 01:01 | 20.05791 | -155.55421 | 12000 ft | 381 kts | 298° |
| 2026-04-28 01:01 | 20.07030 | -155.57918 | 11994 ft | 381 kts | 298° |
| 2026-04-28 01:01 | 20.08261 | -155.60397 | 11985 ft | 381 kts | 298° |
| 2026-04-28 01:02 | 20.09509 | -155.62913 | 11975 ft | 381 kts | 298° |
| 2026-04-28 01:02 | 20.10744 | -155.65405 | 11965 ft | 382 kts | 298° |
| 2026-04-28 01:02 | 20.11988 | -155.67917 | 11961 ft | 382 kts | 298° |
| 2026-04-28 01:02 | 20.13228 | -155.70421 | 11960 ft | 382 kts | 298° |
| 2026-04-28 01:03 | 20.14481 | -155.72952 | 11957 ft | 387 kts | 298° |
| 2026-04-28 01:03 | 20.15743 | -155.75502 | 11944 ft | 392 kts | 298° |
| 2026-04-28 01:03 | 20.17033 | -155.78108 | 11942 ft | 393 kts | 298° |
| 2026-04-28 01:03 | 20.18302 | -155.80675 | 11942 ft | 393 kts | 298° |
| 2026-04-28 01:04 | 20.19608 | -155.83237 | 11942 ft | 393 kts | 300° |
| 2026-04-28 01:04 | 20.21039 | -155.85710 | 11933 ft | 384 kts | 303° |
| 2026-04-28 01:04 | 20.22518 | -155.88003 | 11927 ft | 363 kts | 305° |
| 2026-04-28 01:04 | 20.23923 | -155.90137 | 11921 ft | 344 kts | 305° |
| 2026-04-28 01:05 | 20.25300 | -155.92224 | 11929 ft | 337 kts | 305° |
| 2026-04-28 01:05 | 20.26644 | -155.94260 | 11932 ft | 337 kts | 305° |
| 2026-04-28 01:05 | 20.28002 | -155.96318 | 11932 ft | 337 kts | 305° |
| 2026-04-28 01:05 | 20.29349 | -155.98364 | 11934 ft | 337 kts | 305° |
| 2026-04-28 01:06 | 20.30692 | -156.00404 | 11938 ft | 336 kts | 305° |
| 2026-04-28 01:06 | 20.32028 | -156.02434 | 11934 ft | 336 kts | 305° |
| 2026-04-28 01:06 | 20.33375 | -156.04481 | 11845 ft | 337 kts | 305° |
| 2026-04-28 01:06 | 20.34721 | -156.06529 | 11608 ft | 335 kts | 305° |
| 2026-04-28 01:07 | 20.36044 | -156.08542 | 11371 ft | 333 kts | 305° |
| 2026-04-28 01:07 | 20.37376 | -156.10568 | 11134 ft | 332 kts | 305° |
| 2026-04-28 01:07 | 20.38701 | -156.12585 | 10900 ft | 332 kts | 305° |
| 2026-04-28 01:07 | 20.40026 | -156.14604 | 10670 ft | 330 kts | 305° |
| 2026-04-28 01:08 | 20.41327 | -156.16588 | 10385 ft | 320 kts | 305° |
| 2026-04-28 01:08 | 20.42575 | -156.18492 | 10116 ft | 307 kts | 305° |
| 2026-04-28 01:08 | 20.43752 | -156.20290 | 10034 ft | 288 kts | 305° |
| 2026-04-28 01:08 | 20.44885 | -156.22021 | 10001 ft | 291 kts | 305° |
| 2026-04-28 01:09 | 20.46047 | -156.23817 | 9947 ft | 296 kts | 302° |
| 2026-04-28 01:09 | 20.46952 | -156.25806 | 9679 ft | 296 kts | 291° |
| 2026-04-28 01:09 | 20.47675 | -156.27841 | 9334 ft | 294 kts | 290° |
| 2026-04-28 01:09 | 20.48367 | -156.29881 | 8941 ft | 293 kts | 289° |
| 2026-04-28 01:10 | 20.49053 | -156.31931 | 8565 ft | 291 kts | 289° |
| 2026-04-28 01:10 | 20.49720 | -156.33934 | 8201 ft | 288 kts | 289° |
| 2026-04-28 01:10 | 20.50376 | -156.35918 | 7900 ft | 278 kts | 289° |
| 2026-04-28 01:10 | 20.51001 | -156.37817 | 7674 ft | 265 kts | 289° |
| 2026-04-28 01:11 | 20.51603 | -156.39650 | 7350 ft | 258 kts | 289° |
| 2026-04-28 01:11 | 20.52187 | -156.41437 | 6922 ft | 256 kts | 289° |
| 2026-04-28 01:11 | 20.52766 | -156.43218 | 6552 ft | 253 kts | 289° |
| 2026-04-28 01:11 | 20.53328 | -156.44951 | 6335 ft | 241 kts | 289° |
| 2026-04-28 01:12 | 20.53867 | -156.46620 | 5946 ft | 236 kts | 290° |
| 2026-04-28 01:12 | 20.54392 | -156.48263 | 5451 ft | 235 kts | 290° |
| 2026-04-28 01:12 | 20.54907 | -156.49898 | 4955 ft | 235 kts | 289° |
| 2026-04-28 01:12 | 20.55420 | -156.51544 | 4471 ft | 234 kts | 289° |
| 2026-04-28 01:13 | 20.55919 | -156.53175 | 3991 ft | 233 kts | 289° |
| 2026-04-28 01:13 | 20.56901 | -156.56462 | 3093 ft | 230 kts | 289° |
| 2026-04-28 01:13 | 20.57378 | -156.58095 | 2968 ft | 230 kts | 290° |
| 2026-04-28 01:14 | 20.57849 | -156.59718 | 2967 ft | 231 kts | 290° |
| 2026-04-28 01:14 | 20.58618 | -156.61218 | 2946 ft | 226 kts | 319° |
| 2026-04-28 01:14 | 20.59961 | -156.62013 | 2960 ft | 219 kts | 351° |
| 2026-04-28 01:14 | 20.61467 | -156.62259 | 2974 ft | 218 kts | 358° |
| 2026-04-28 01:15 | 20.62964 | -156.62207 | 2970 ft | 214 kts | 15° |
| 2026-04-28 01:15 | 20.64358 | -156.61708 | 2971 ft | 211 kts | 28° |
| 2026-04-28 01:15 | 20.65635 | -156.60934 | 2970 ft | 209 kts | 35° |
| 2026-04-28 01:15 | 20.66860 | -156.60068 | 2973 ft | 209 kts | 37° |
| 2026-04-28 01:16 | 20.68030 | -156.59207 | 3005 ft | 196 kts | 38° |
| 2026-04-28 01:16 | 20.69124 | -156.58392 | 3027 ft | 191 kts | 38° |
| 2026-04-28 01:16 | 20.70209 | -156.57582 | 2989 ft | 186 kts | 38° |
| 2026-04-28 01:16 | 20.71225 | -156.56824 | 2957 ft | 170 kts | 38° |
| 2026-04-28 01:17 | 20.72204 | -156.56093 | 2966 ft | 169 kts | 38° |
| 2026-04-28 01:17 | 20.73168 | -156.55370 | 2969 ft | 169 kts | 38° |
| 2026-04-28 01:17 | 20.74138 | -156.54645 | 2969 ft | 168 kts | 38° |
| 2026-04-28 01:17 | 20.75093 | -156.53932 | 2969 ft | 169 kts | 38° |
| 2026-04-28 01:18 | 20.76064 | -156.53207 | 2956 ft | 169 kts | 38° |
| 2026-04-28 01:18 | 20.77041 | -156.52480 | 2789 ft | 169 kts | 39° |
| 2026-04-28 01:18 | 20.77987 | -156.51776 | 2569 ft | 165 kts | 39° |
| 2026-04-28 01:18 | 20.78941 | -156.51065 | 2355 ft | 165 kts | 38° |
| 2026-04-28 01:19 | 20.79877 | -156.50368 | 2152 ft | 158 kts | 38° |
| 2026-04-28 01:19 | 20.80726 | -156.49739 | 1946 ft | 140 kts | 39° |
| 2026-04-28 01:19 | 20.81502 | -156.49162 | 1738 ft | 128 kts | 40° |
| 2026-04-28 01:19 | 20.82231 | -156.48618 | 1590 ft | 128 kts | 40° |
| 2026-04-28 01:20 | 20.82970 | -156.48067 | 1441 ft | 127 kts | 40° |
| 2026-04-28 01:20 | 20.83689 | -156.47530 | 1290 ft | 126 kts | 40° |
| 2026-04-28 01:20 | 20.84406 | -156.46995 | 1143 ft | 124 kts | 40° |
| 2026-04-28 01:20 | 20.85119 | -156.46466 | 984 ft | 124 kts | 40° |
| 2026-04-28 01:21 | 20.85824 | -156.45940 | 825 ft | 124 kts | 40° |
| 2026-04-28 01:21 | 20.86534 | -156.45410 | 654 ft | 123 kts | 39° |
| 2026-04-28 01:21 | 20.87234 | -156.44890 | 510 ft | 121 kts | 39° |
| 2026-04-28 01:21 | 20.87927 | -156.44373 | 337 ft | 121 kts | 39° |
| 2026-04-28 01:22 | 20.88637 | -156.43852 | 197 ft | 122 kts | 39° |
| 2026-04-28 01:22 | 20.89319 | -156.43339 | 79 ft | 112 kts | 40° |
| 2026-04-28 01:22 | 20.89755 | -156.43012 | 53 ft | 33 kts | 33° |
| 2026-04-28 01:22 | 20.89890 | -156.42909 | 48 ft | 19 kts | 38° |
| 2026-04-28 01:23 | 20.89978 | -156.42888 | 45 ft | 13 kts | 335° |
| 2026-04-28 01:23 | 20.90009 | -156.42967 | 44 ft | 13 kts | 248° |
| 2026-04-28 01:23 | 20.89942 | -156.43030 | 45 ft | 13 kts | 214° |